»·PEaware :: N172EL KSNA-KCRQ

N172EL :: KSNA-KCRQ

FLIGHT INFORMATION

Flight Status: Arrived
Operator: Privately registered:
United States
More flights under this callsign
Pilot: William W. (20687)
Aircraft: CESSNA 172 SKYHAWK
(C172)
More flights by this aircraft type
Origin: KSNA John Wayne-Orange Co
United States
Destination: KCRQ McClellan-Palomar
United States
More flights between these airports :: More routes between these airports
Route: +V23 OCN
File this flight plan on PilotEdge
Remarks: I-2 to palomar
Altitude:
(Current/Filed)
5,000ft
Speed:
(Current/Filed)
115kts
Departed: 04-Oct-18 05:07 PM
Arrived: 04-Oct-18 05:48 PM
Distance/Time
Traveled:
44nm/0:41
Distance/Time
To Go:
Arrived

Flight Plot

Page will automatically refresh every two minutes.


Map Options




Map Legend


Flown Route
Filed Route
Departure Airport
Arrival Airport
Navaid (VOR, NDB)
Fix

Horizontal Profiles

Position Reports

Time Latitude Longitude Heading Altitude Ground
Speed
04-Oct-18 16:53 33.675760 -117.871269 40 60ft 0kts
04-Oct-18 16:54 33.675760 -117.871269 40 60ft 0kts
04-Oct-18 16:55 33.675760 -117.871269 40 60ft 0kts
04-Oct-18 16:56 33.675760 -117.871269 40 60ft 0kts
04-Oct-18 16:57 33.675760 -117.871269 40 60ft 0kts
04-Oct-18 16:58 33.675760 -117.871269 40 60ft 0kts
04-Oct-18 16:59 33.675760 -117.871269 40 60ft 0kts
04-Oct-18 17:00 33.675760 -117.871269 40 60ft 0kts
04-Oct-18 17:01 33.675760 -117.871269 40 60ft 0kts
04-Oct-18 17:02 33.675760 -117.871269 40 60ft 0kts
04-Oct-18 17:03 33.675760 -117.871269 40 60ft 0kts
04-Oct-18 17:04 33.676762 -117.870041 18 60ft 13kts
04-Oct-18 17:05 33.681041 -117.867083 31 60ft 20kts
04-Oct-18 17:06 33.681272 -117.866604 92 60ft 0kts
04-Oct-18 17:07 33.681272 -117.866604 92 60ft 0kts
04-Oct-18 17:08 33.681272 -117.866604 92 60ft 0kts
04-Oct-18 17:09 33.674524 -117.869750 210 236ft 74kts
04-Oct-18 17:10 33.656016 -117.883086 210 1274ft 81kts
04-Oct-18 17:11 33.633957 -117.887387 186 2285ft 82kts
04-Oct-18 17:12 33.611208 -117.890460 186 3235ft 83kts
04-Oct-18 17:13 33.588054 -117.893577 186 4127ft 84kts
04-Oct-18 17:14 33.564993 -117.894029 141 4945ft 88kts
04-Oct-18 17:15 33.552630 -117.861028 112 4997ft 118kts
04-Oct-18 17:16 33.540195 -117.823989 112 4994ft 120kts
04-Oct-18 17:17 33.527643 -117.786661 112 4992ft 119kts
04-Oct-18 17:18 33.515334 -117.750071 112 4988ft 118kts
04-Oct-18 17:19 33.503009 -117.713414 112 4988ft 118kts
04-Oct-18 17:20 33.490736 -117.676895 112 4988ft 118kts
04-Oct-18 17:21 33.478056 -117.640644 129 4982ft 118kts
04-Oct-18 17:22 33.447227 -117.628558 166 4993ft 118kts
04-Oct-18 17:23 33.415860 -117.617481 150 4990ft 118kts
04-Oct-18 17:24 33.395645 -117.598335 137 4984ft 118kts
04-Oct-18 17:25 33.372244 -117.570720 135 4981ft 119kts
04-Oct-18 17:26 33.350012 -117.541709 109 4977ft 118kts
04-Oct-18 17:27 33.352635 -117.502636 82 4978ft 118kts
04-Oct-18 17:28 33.356994 -117.463618 82 4977ft 118kts
04-Oct-18 17:29 33.361359 -117.424585 82 4975ft 118kts
04-Oct-18 17:30 33.358790 -117.386368 112 4972ft 118kts
04-Oct-18 17:31 33.346278 -117.349915 113 4968ft 118kts
04-Oct-18 17:32 33.333951 -117.313884 112 5011ft 117kts
04-Oct-18 17:33 33.321520 -117.277604 112 5009ft 118kts
04-Oct-18 17:34 33.309041 -117.241240 112 5006ft 118kts
04-Oct-18 17:35 33.296778 -117.204422 112 4797ft 119kts
04-Oct-18 17:36 33.284960 -117.168241 112 4316ft 115kts
04-Oct-18 17:37 33.273295 -117.132515 112 3835ft 115kts
04-Oct-18 17:38 33.261665 -117.096770 111 3501ft 113kts
04-Oct-18 17:39 33.250391 -117.062053 111 3497ft 111kts
04-Oct-18 17:40 33.236834 -117.029709 152 3492ft 111kts
04-Oct-18 17:41 33.206224 -117.029100 182 3483ft 111kts
04-Oct-18 17:42 33.181085 -117.048159 222 3486ft 110kts
04-Oct-18 17:43 33.160671 -117.074934 257 3489ft 110kts
04-Oct-18 17:44 33.154972 -117.112846 259 3110ft 115kts
04-Oct-18 17:45 33.149224 -117.148686 259 2501ft 107kts
04-Oct-18 17:46 33.143795 -117.183153 259 1925ft 101kts
04-Oct-18 17:47 33.139052 -117.211864 259 1409ft 80kts
04-Oct-18 17:48 33.134873 -117.237449 260 966ft 78kts
04-Oct-18 17:49 33.131034 -117.262760 259 550ft 77kts
04-Oct-18 17:50 33.128011 -117.281924 258 312ft 18kts
04-Oct-18 17:51 33.128748 -117.282946 223 312ft 0kts
04-Oct-18 17:52 33.128748 -117.282946 223 312ft 0kts

Navigation Log

Ident Type
Flight plan parsing failed, navigation log unavailable